Time;durP1;ratioP1;P1;durP2;ratioP2;P2;SDS_P1;SDS_P2;PMS_P1;PMS_P2;Temp;Humidity;BMP_temperature;BMP_pressure;BME280_temperature;BME280_humidity;BME280_pressure;Samples;Min_cycle;Max_cycle;Signal;HPM_P1;HPM_P2
2021/06/04 00:00:25;;;;;;;;;10.00;9.00;;;;;;;;3540823;39;113649;-72
2021/06/04 00:02:52;;;;;;;;;8.25;8.25;;;;;;;;3540681;39;113880;-71
2021/06/04 00:05:20;;;;;;;;;8.00;7.75;;;;;;;;3534928;39;111798;-72
2021/06/04 00:07:46;;;;;;;;;10.50;9.00;;;;;;;;3532291;39;114159;-72
2021/06/04 00:10:14;;;;;;;;;8.00;8.00;;;;;;;;3533901;39;114115;-72
2021/06/04 00:12:40;;;;;;;;;10.25;7.75;;;;;;;;3534214;39;111837;-74
2021/06/04 00:15:08;;;;;;;;;8.75;8.50;;;;;;;;3534456;39;113559;-74
2021/06/04 00:17:35;;;;;;;;;12.25;8.75;;;;;;;;3531970;39;114100;-72
2021/06/04 00:20:02;;;;;;;;;9.75;9.75;;;;;;;;3536994;39;111969;-73
2021/06/04 00:22:28;;;;;;;;;10.75;10.75;;;;;;;;3533948;39;117648;-73
2021/06/04 00:24:56;;;;;;;;;8.50;8.00;;;;;;;;3534327;39;111976;-72
2021/06/04 00:27:23;;;;;;;;;10.00;10.00;;;;;;;;3534366;39;113328;-72
2021/06/04 00:29:49;;;;;;;;;9.50;9.50;;;;;;;;3533959;39;113628;-73
2021/06/04 00:32:17;;;;;;;;;11.00;10.75;;;;;;;;3534276;39;111966;-73
2021/06/04 00:34:44;;;;;;;;;7.25;7.25;;;;;;;;3534269;39;112878;-71
2021/06/04 00:37:11;;;;;;;;;11.00;10.50;;;;;;;;3533827;39;113936;-73
2021/06/04 00:39:38;;;;;;;;;9.75;7.75;;;;;;;;3534375;39;112029;-72
2021/06/04 00:42:13;;;;;;;;;11.00;10.00;;;;;;;;3534360;39;112985;-73
2021/06/04 00:44:40;;;;;;;;;10.25;10.25;;;;;;;;3532722;39;112028;-73
2021/06/04 00:47:06;;;;;;;;;8.50;8.00;;;;;;;;3534232;39;113240;-73
2021/06/04 00:49:33;;;;;;;;;11.50;10.25;;;;;;;;3533768;39;114172;-73
2021/06/04 00:52:02;;;;;;;;;12.00;10.25;;;;;;;;3534174;39;112251;-73
2021/06/04 00:54:29;;;;;;;;;11.50;10.50;;;;;;;;3534281;39;113312;-73
2021/06/04 00:56:55;;;;;;;;;10.00;10.00;;;;;;;;3533713;39;114190;-74
2021/06/04 00:59:27;;;;;;;;;11.00;11.00;;;;;;;;3534213;39;111793;-73
2021/06/04 01:01:53;;;;;;;;;10.00;9.00;;;;;;;;3534154;39;113821;-73
2021/06/04 01:04:22;;;;;;;;;9.50;9.50;;;;;;;;3536077;39;112069;-73
2021/06/04 01:06:52;;;;;;;;;10.50;9.50;;;;;;;;3534370;39;113330;-73
2021/06/04 01:09:33;;;;;;;;;6.50;6.00;;;;;;;;3532246;39;113316;-71
2021/06/04 01:12:09;;;;;;;;;10.75;8.75;;;;;;;;3534182;39;112324;-70
2021/06/04 01:14:39;;;;;;;;;9.00;9.00;;;;;;;;3532459;39;113319;-70
2021/06/04 01:17:10;;;;;;;;;7.25;7.00;;;;;;;;3531115;39;113961;-70
2021/06/04 01:19:44;;;;;;;;;7.75;7.75;;;;;;;;3532529;39;111970;-71
2021/06/04 01:22:15;;;;;;;;;10.00;8.25;;;;;;;;3532386;39;113257;-71
2021/06/04 01:24:54;;;;;;;;;9.00;9.00;;;;;;;;3536507;39;113843;-71
2021/06/04 01:27:24;;;;;;;;;10.25;9.00;;;;;;;;3534151;39;113674;-71
2021/06/04 01:29:52;;;;;;;;;11.00;9.25;;;;;;;;3533634;39;113976;-71
2021/06/04 01:32:21;;;;;;;;;11.50;10.00;;;;;;;;3534098;39;112014;-71
2021/06/04 01:34:49;;;;;;;;;9.75;8.50;;;;;;;;3534056;39;113870;-71
2021/06/04 01:37:19;;;;;;;;;9.25;9.25;;;;;;;;3533635;39;114719;-71
2021/06/04 01:39:47;;;;;;;;;9.25;9.25;;;;;;;;3534057;39;112219;-72
2021/06/04 01:42:15;;;;;;;;;9.00;9.00;;;;;;;;3532068;39;113070;-72
2021/06/04 01:44:46;;;;;;;;;11.00;10.50;;;;;;;;3533452;39;113993;-70
2021/06/04 01:47:14;;;;;;;;;8.00;8.00;;;;;;;;3536735;39;112277;-71
2021/06/04 01:49:42;;;;;;;;;8.25;8.25;;;;;;;;3533505;39;114299;-72
2021/06/04 01:52:11;;;;;;;;;13.00;11.00;;;;;;;;3533893;39;111913;-72
2021/06/04 01:54:39;;;;;;;;;10.00;8.50;;;;;;;;3534291;39;113119;-71
2021/06/04 01:57:12;;;;;;;;;11.00;11.00;;;;;;;;3531778;39;113926;-72
2021/06/04 01:59:41;;;;;;;;;9.00;9.00;;;;;;;;3532324;39;112466;-71
2021/06/04 02:02:09;;;;;;;;;9.00;8.50;;;;;;;;3532265;39;112703;-71
2021/06/04 02:04:36;;;;;;;;;12.25;9.25;;;;;;;;3531648;39;114494;-71
2021/06/04 02:07:04;;;;;;;;;9.00;9.00;;;;;;;;3533899;39;111950;-72
2021/06/04 02:09:30;;;;;;;;;8.50;8.00;;;;;;;;3536203;39;113947;-72
2021/06/04 02:11:57;;;;;;;;;10.50;10.00;;;;;;;;3533904;39;112105;-71
2021/06/04 02:14:25;;;;;;;;;13.00;10.75;;;;;;;;3533847;39;113201;-71
2021/06/04 02:16:58;;;;;;;;;10.00;10.00;;;;;;;;3533403;39;113956;-70
2021/06/04 02:19:35;;;;;;;;;14.75;11.50;;;;;;;;3533800;39;111905;-72
2021/06/04 02:22:05;;;;;;;;;14.25;12.50;;;;;;;;3533843;39;113646;-72
2021/06/04 02:24:34;;;;;;;;;15.25;13.50;;;;;;;;3533351;39;114021;-72
2021/06/04 02:27:02;;;;;;;;;14.50;14.00;;;;;;;;3533603;39;112336;-72
2021/06/04 02:29:31;;;;;;;;;16.00;14.75;;;;;;;;3531735;39;113294;-71
2021/06/04 02:32:01;;;;;;;;;16.75;15.50;;;;;;;;3535865;39;114386;-71
2021/06/04 02:34:38;;;;;;;;;16.75;15.25;;;;;;;;3533735;39;113345;-72
2021/06/04 02:37:06;;;;;;;;;16.50;16.00;;;;;;;;3530121;39;112865;-72
2021/06/04 02:39:34;;;;;;;;;17.75;16.25;;;;;;;;3533681;39;112024;-71
2021/06/04 02:42:02;;;;;;;;;17.50;16.50;;;;;;;;3533704;39;112949;-72
2021/06/04 02:44:31;;;;;;;;;19.75;17.00;;;;;;;;3533133;39;113831;-72
2021/06/04 02:47:05;;;;;;;;;16.00;16.00;;;;;;;;3533543;39;111838;-72
2021/06/04 02:49:34;;;;;;;;;17.25;16.25;;;;;;;;3533712;39;113106;-73
2021/06/04 02:52:08;;;;;;;;;16.00;15.50;;;;;;;;3533089;39;114416;-73
2021/06/04 02:54:36;;;;;;;;;16.50;14.00;;;;;;;;3534301;39;111726;-72
2021/06/04 02:57:07;;;;;;;;;14.50;14.00;;;;;;;;3533158;39;114842;-73
2021/06/04 02:59:35;;;;;;;;;18.75;15.00;;;;;;;;3531559;39;112072;-71
2021/06/04 03:02:03;;;;;;;;;13.25;13.00;;;;;;;;3533368;39;113514;-71
2021/06/04 03:04:30;;;;;;;;;16.25;13.50;;;;;;;;3533173;39;113909;-71
2021/06/04 03:06:59;;;;;;;;;14.50;13.00;;;;;;;;3533219;39;112233;-72
2021/06/04 03:09:26;;;;;;;;;14.75;14.00;;;;;;;;3533600;39;113098;-72
2021/06/04 03:11:57;;;;;;;;;16.75;13.50;;;;;;;;3533018;39;113801;-72
2021/06/04 03:14:24;;;;;;;;;12.25;12.25;;;;;;;;3536044;39;112023;-71
2021/06/04 03:16:51;;;;;;;;;13.50;12.50;;;;;;;;3532898;39;114579;-72
2021/06/04 03:19:17;;;;;;;;;15.25;14.75;;;;;;;;3533329;39;111886;-70
2021/06/04 03:21:45;;;;;;;;;8.25;7.25;;;;;;;;3533301;39;112216;-72
2021/06/04 03:24:17;;;;;;;;;12.25;12.25;;;;;;;;3532857;39;113814;-72
2021/06/04 03:26:44;;;;;;;;;16.50;15.00;;;;;;;;3533350;39;112474;-71
2021/06/04 03:29:11;;;;;;;;;16.00;15.00;;;;;;;;3533260;39;113378;-72
2021/06/04 03:31:40;;;;;;;;;18.00;17.25;;;;;;;;3532781;39;114075;-72
2021/06/04 03:34:07;;;;;;;;;18.25;15.75;;;;;;;;3531306;39;111867;-71
2021/06/04 03:36:35;;;;;;;;;17.25;16.00;;;;;;;;3535423;39;114664;-71
2021/06/04 03:39:01;;;;;;;;;18.50;17.25;;;;;;;;3533380;39;111884;-70
2021/06/04 03:41:34;;;;;;;;;14.75;14.50;;;;;;;;3534500;39;113680;-72
2021/06/04 03:44:03;;;;;;;;;16.50;14.50;;;;;;;;3533985;39;114268;-71
2021/06/04 03:46:29;;;;;;;;;18.25;16.00;;;;;;;;3534621;39;112057;-72
2021/06/04 03:48:55;;;;;;;;;21.25;16.50;;;;;;;;3534322;39;113254;-72
2021/06/04 03:51:23;;;;;;;;;16.75;16.50;;;;;;;;3534038;39;114251;-73
2021/06/04 03:53:49;;;;;;;;;18.50;16.50;;;;;;;;3534552;39;112126;-72
2021/06/04 03:56:16;;;;;;;;;17.25;15.50;;;;;;;;3534471;39;113501;-71
2021/06/04 03:58:44;;;;;;;;;19.75;17.50;;;;;;;;3536620;39;114138;-71
2021/06/04 04:01:11;;;;;;;;;22.00;20.50;;;;;;;;3534500;39;113203;-72
2021/06/04 04:03:38;;;;;;;;;18.50;17.00;;;;;;;;3534113;39;113808;-72
2021/06/04 04:06:05;;;;;;;;;20.25;17.00;;;;;;;;3530917;39;111987;-72
2021/06/04 04:08:31;;;;;;;;;21.00;16.50;;;;;;;;3534414;39;113236;-73
2021/06/04 04:10:58;;;;;;;;;20.50;18.50;;;;;;;;3534008;39;114367;-72
2021/06/04 04:13:25;;;;;;;;;19.00;19.00;;;;;;;;3534318;39;112305;-72
2021/06/04 04:15:52;;;;;;;;;21.75;21.75;;;;;;;;3534483;39;113999;-71
2021/06/04 04:18:19;;;;;;;;;23.50;22.00;;;;;;;;3533756;39;113819;-72
2021/06/04 04:20:46;;;;;;;;;22.25;18.75;;;;;;;;3537071;39;112094;-71
2021/06/04 04:23:13;;;;;;;;;23.50;19.50;;;;;;;;3533731;39;113899;-71
2021/06/04 04:25:40;;;;;;;;;20.25;18.25;;;;;;;;3534499;39;111946;-72
2021/06/04 04:28:08;;;;;;;;;18.75;18.50;;;;;;;;3532437;39;113316;-72
2021/06/04 04:30:35;;;;;;;;;23.00;20.00;;;;;;;;3531849;39;113961;-72
2021/06/04 04:33:03;;;;;;;;;21.25;17.75;;;;;;;;3534110;39;112228;-72
2021/06/04 04:35:31;;;;;;;;;18.25;16.75;;;;;;;;3532289;39;113265;-72
2021/06/04 04:37:59;;;;;;;;;21.75;18.75;;;;;;;;3533795;39;113919;-72
2021/06/04 04:40:27;;;;;;;;;17.75;17.75;;;;;;;;3534267;39;111777;-73
2021/06/04 04:42:53;;;;;;;;;26.25;23.25;;;;;;;;3536409;39;113224;-72
2021/06/04 04:45:21;;;;;;;;;17.75;16.50;;;;;;;;3534190;39;113322;-72
2021/06/04 04:47:47;;;;;;;;;17.25;16.25;;;;;;;;3534258;39;113437;-72
2021/06/04 04:50:15;;;;;;;;;23.00;20.00;;;;;;;;3533685;39;113901;-72
2021/06/04 04:52:41;;;;;;;;;19.00;19.00;;;;;;;;3534167;39;111840;-71
2021/06/04 04:55:08;;;;;;;;;23.50;19.25;;;;;;;;3534147;39;113261;-71
2021/06/04 04:57:34;;;;;;;;;24.25;18.75;;;;;;;;3531737;39;113903;-72
2021/06/04 05:00:01;;;;;;;;;14.00;9.25;;;;;;;;3534057;39;111939;-72
2021/06/04 05:02:27;;;;;;;;;28.25;20.50;;;;;;;;3534275;39;113380;-71
2021/06/04 05:04:53;;;;;;;;;19.75;19.50;;;;;;;;3536345;39;114088;-70
2021/06/04 05:07:21;;;;;;;;;22.00;18.00;;;;;;;;3534339;39;113302;-71
2021/06/04 05:09:47;;;;;;;;;19.50;18.25;;;;;;;;3533752;39;113866;-70
2021/06/04 05:12:14;;;;;;;;;24.00;22.75;;;;;;;;3534116;39;112856;-72
2021/06/04 05:14:40;;;;;;;;;27.50;25.25;;;;;;;;3533954;39;113916;-70
2021/06/04 05:17:06;;;;;;;;;37.50;30.75;;;;;;;;3533541;39;114123;-72
2021/06/04 05:19:33;;;;;;;;;45.00;36.50;;;;;;;;3534016;39;111961;-71
2021/06/04 05:21:59;;;;;;;;;46.25;38.50;;;;;;;;3534030;39;115727;-69
2021/06/04 05:24:27;;;;;;;;;47.25;40.25;;;;;;;;3536190;39;113745;-68
2021/06/04 05:26:53;;;;;;;;;43.50;37.25;;;;;;;;3533904;39;113278;-68
2021/06/04 05:29:19;;;;;;;;;42.75;38.00;;;;;;;;3533574;39;113901;-69
2021/06/04 05:31:46;;;;;;;;;38.00;35.25;;;;;;;;3534117;39;112134;-69
2021/06/04 05:34:12;;;;;;;;;46.25;38.75;;;;;;;;3533969;39;113889;-70
2021/06/04 05:36:39;;;;;;;;;48.50;39.25;;;;;;;;3531524;39;113894;-71
2021/06/04 05:39:08;;;;;;;;;48.50;38.00;;;;;;;;3534018;39;111915;-71
2021/06/04 05:41:35;;;;;;;;;36.25;32.25;;;;;;;;3531942;39;113324;-71
2021/06/04 05:44:02;;;;;;;;;36.75;35.00;;;;;;;;3533244;39;113799;-72
2021/06/04 05:46:28;;;;;;;;;36.00;33.00;;;;;;;;3535230;39;112824;-72
2021/06/04 05:48:54;;;;;;;;;36.25;32.25;;;;;;;;3532730;39;113896;-71
2021/06/04 05:51:22;;;;;;;;;30.75;30.25;;;;;;;;3533933;39;111980;-71
2021/06/04 05:53:48;;;;;;;;;33.75;29.75;;;;;;;;3534063;39;113212;-71
2021/06/04 05:56:16;;;;;;;;;31.75;31.50;;;;;;;;3533443;39;113765;-68
2021/06/04 05:58:44;;;;;;;;;34.25;29.25;;;;;;;;3533993;39;111877;-71
2021/06/04 06:01:13;;;;;;;;;42.50;34.25;;;;;;;;3533684;39;113212;-74
2021/06/04 06:03:39;;;;;;;;;29.75;25.50;;;;;;;;3533373;39;113924;-75
2021/06/04 06:06:06;;;;;;;;;30.25;29.50;;;;;;;;3533890;39;112054;-74
2021/06/04 06:08:32;;;;;;;;;32.50;22.75;;;;;;;;3534664;39;114331;-73
2021/06/04 06:10:58;;;;;;;;;29.50;27.00;;;;;;;;3533851;39;113306;-73
2021/06/04 06:13:25;;;;;;;;;30.00;26.00;;;;;;;;3533766;39;113415;-74
2021/06/04 06:15:53;;;;;;;;;30.25;28.50;;;;;;;;3531850;39;116893;-74
2021/06/04 06:18:19;;;;;;;;;28.75;26.00;;;;;;;;3533955;39;111917;-77
2021/06/04 06:20:46;;;;;;;;;34.00;29.00;;;;;;;;3533960;39;112692;-79
2021/06/04 06:23:13;;;;;;;;;41.75;33.00;;;;;;;;3533363;39;113894;-74
2021/06/04 06:25:40;;;;;;;;;38.75;31.50;;;;;;;;3532176;39;113110;-75
2021/06/04 06:28:08;;;;;;;;;31.75;31.25;;;;;;;;3532289;39;113185;-73
2021/06/04 06:30:35;;;;;;;;;37.50;31.25;;;;;;;;3530257;39;114250;-72
2021/06/04 06:33:03;;;;;;;;;36.25;30.75;;;;;;;;3532773;39;113324;-73
2021/06/04 06:35:32;;;;;;;;;30.50;29.75;;;;;;;;3532660;39;114242;-73
2021/06/04 06:37:58;;;;;;;;;28.75;27.75;;;;;;;;3532603;39;112419;-73
2021/06/04 06:40:26;;;;;;;;;36.75;31.75;;;;;;;;3533509;39;113443;-73
2021/06/04 06:42:53;;;;;;;;;31.25;28.00;;;;;;;;3532829;39;112833;-73
2021/06/04 06:45:19;;;;;;;;;28.00;24.50;;;;;;;;3533338;39;111753;-74
2021/06/04 06:47:45;;;;;;;;;29.50;26.50;;;;;;;;3533495;39;112638;-75
2021/06/04 06:50:13;;;;;;;;;25.00;25.00;;;;;;;;3532958;39;113913;-75
2021/06/04 06:52:39;;;;;;;;;35.25;32.25;;;;;;;;3536276;39;113695;-74
2021/06/04 06:55:07;;;;;;;;;32.25;31.00;;;;;;;;3532456;39;114161;-72
2021/06/04 06:57:34;;;;;;;;;31.00;29.50;;;;;;;;3529336;39;111910;-72
2021/06/04 07:00:00;;;;;;;;;30.25;27.50;;;;;;;;3531365;39;113252;-72
2021/06/04 07:02:26;;;;;;;;;29.00;27.75;;;;;;;;3533059;39;113774;-72
2021/06/04 07:04:52;;;;;;;;;27.75;26.00;;;;;;;;3533190;39;111929;-72
2021/06/04 07:07:21;;;;;;;;;29.50;28.50;;;;;;;;3533426;39;113237;-75
2021/06/04 07:09:47;;;;;;;;;31.50;24.25;;;;;;;;3532028;39;114194;-75
2021/06/04 07:12:14;;;;;;;;;27.75;26.25;;;;;;;;3531134;39;113133;-75
2021/06/04 07:14:40;;;;;;;;;26.00;25.50;;;;;;;;3535293;39;113706;-73
2021/06/04 07:17:07;;;;;;;;;24.50;23.00;;;;;;;;3534478;39;111999;-75
2021/06/04 07:19:35;;;;;;;;;29.50;28.00;;;;;;;;3533509;39;114532;-75
2021/06/04 07:22:01;;;;;;;;;32.00;29.00;;;;;;;;3533993;39;114117;-74
2021/06/04 07:24:30;;;;;;;;;33.75;30.25;;;;;;;;3534417;39;112280;-75
2021/06/04 07:26:58;;;;;;;;;20.25;18.50;;;;;;;;3534429;39;113333;-73
2021/06/04 07:29:25;;;;;;;;;23.75;22.75;;;;;;;;3533935;39;114191;-74
2021/06/04 07:31:51;;;;;;;;;24.50;23.25;;;;;;;;3533561;39;111954;-75
2021/06/04 07:34:18;;;;;;;;;25.75;23.25;;;;;;;;3535740;39;113978;-76
2021/06/04 07:36:45;;;;;;;;;26.25;25.75;;;;;;;;3534449;39;111903;-75
2021/06/04 07:39:13;;;;;;;;;22.75;22.25;;;;;;;;3534217;39;113671;-76
2021/06/04 07:41:41;;;;;;;;;26.00;24.25;;;;;;;;3533949;39;114102;-70
2021/06/04 07:44:08;;;;;;;;;25.50;25.00;;;;;;;;3534486;39;111776;-69
2021/06/04 07:46:35;;;;;;;;;23.75;23.75;;;;;;;;3532367;39;116014;-68
2021/06/04 07:49:01;;;;;;;;;21.75;20.25;;;;;;;;3533059;39;114066;-69
2021/06/04 07:51:29;;;;;;;;;25.00;22.25;;;;;;;;3533204;39;111901;-70
2021/06/04 07:53:55;;;;;;;;;21.25;21.25;;;;;;;;3534285;39;113237;-69
2021/06/04 07:56:21;;;;;;;;;17.00;17.00;;;;;;;;3536252;39;113906;-70
2021/06/04 07:58:49;;;;;;;;;22.75;21.50;;;;;;;;3534706;39;113145;-70
2021/06/04 11:19:50;;;;;;;;;10.33;9.33;;;;;;;;3558750;39;992019;-68
2021/06/04 11:22:18;;;;;;;;;8.00;8.00;;;;;;;;3586964;39;113913;-69
2021/06/04 11:24:47;;;;;;;;;14.33;12.67;;;;;;;;3586496;39;112704;-68
2021/06/04 11:27:18;;;;;;;;;14.33;13.00;;;;;;;;3587517;39;113198;-69
2021/06/04 11:29:45;;;;;;;;;6.33;6.00;;;;;;;;3586203;39;113985;-68
2021/06/04 11:32:16;;;;;;;;;10.33;10.33;;;;;;;;3587284;39;112025;-68
2021/06/04 11:34:45;;;;;;;;;7.67;7.67;;;;;;;;3586378;39;113301;-69
2021/06/04 11:37:15;;;;;;;;;8.00;6.67;;;;;;;;3587051;39;113782;-70
2021/06/04 11:39:42;;;;;;;;;7.67;7.67;;;;;;;;3588755;39;111947;-70
2021/06/04 11:42:10;;;;;;;;;7.00;7.00;;;;;;;;3587276;39;113862;-68
2021/06/04 11:44:42;;;;;;;;;5.33;5.33;;;;;;;;3585968;39;112013;-69
2021/06/04 11:47:44;;;;;;;;;6.00;6.00;;;;;;;;3586303;39;113187;-69
2021/06/04 11:50:25;;;;;;;;;7.00;7.00;;;;;;;;3585887;39;113913;-69
2021/06/04 11:52:56;;;;;;;;;6.00;6.00;;;;;;;;3587746;39;112241;-69
2021/06/04 11:55:35;;;;;;;;;4.00;4.00;;;;;;;;3587716;39;113756;-70
2021/06/04 11:58:05;;;;;;;;;7.00;7.00;;;;;;;;3587383;39;114061;-69
2021/06/04 12:00:39;;;;;;;;;5.67;5.67;;;;;;;;3587470;39;112356;-70
2021/06/04 12:03:25;;;;;;;;;6.33;6.33;;;;;;;;3588450;39;113182;-70
2021/06/04 12:05:54;;;;;;;;;6.00;5.00;;;;;;;;3586942;39;111836;-71
2021/06/04 12:08:44;;;;;;;;;7.00;5.00;;;;;;;;3586612;39;113189;-69
2021/06/04 12:11:34;;;;;;;;;5.67;4.67;;;;;;;;3585687;39;114064;-70
2021/06/04 12:14:15;;;;;;;;;6.00;6.00;;;;;;;;3585883;39;112851;-70
2021/06/04 12:16:41;;;;;;;;;6.67;6.00;;;;;;;;3588179;39;113197;-74
2021/06/04 12:19:30;;;;;;;;;7.00;6.00;;;;;;;;3585814;39;113941;-70
2021/06/04 12:21:58;;;;;;;;;6.67;6.00;;;;;;;;3586260;39;112374;-70
2021/06/04 12:24:43;;;;;;;;;6.67;6.33;;;;;;;;3587069;39;112993;-70
2021/06/04 12:27:23;;;;;;;;;7.00;5.33;;;;;;;;3588119;39;114465;-70
2021/06/04 12:29:52;;;;;;;;;9.00;9.00;;;;;;;;3583018;39;112088;-72
2021/06/04 12:32:19;;;;;;;;;7.67;7.00;;;;;;;;3579074;39;114081;-71
2021/06/04 12:34:54;;;;;;;;;9.00;7.67;;;;;;;;3580857;39;112107;-70
2021/06/04 12:37:31;;;;;;;;;7.00;7.00;;;;;;;;3582416;39;113755;-69
2021/06/04 12:40:15;;;;;;;;;8.33;6.33;;;;;;;;3580432;39;113982;-71
2021/06/04 12:42:46;;;;;;;;;7.33;6.00;;;;;;;;3579042;39;112576;-71
2021/06/04 12:45:22;;;;;;;;;7.33;6.00;;;;;;;;3579269;39;113266;-69
2021/06/04 12:47:52;;;;;;;;;8.00;8.00;;;;;;;;3578319;39;114211;-70
2021/06/04 12:50:21;;;;;;;;;9.00;8.00;;;;;;;;3581625;39;112078;-71
2021/06/04 12:52:48;;;;;;;;;6.00;6.00;;;;;;;;3578105;39;113976;-70
2021/06/04 12:55:16;;;;;;;;;7.00;7.00;;;;;;;;3574322;39;112114;-70
2021/06/04 12:57:42;;;;;;;;;8.00;7.00;;;;;;;;3578560;39;113838;-70
2021/06/04 13:00:17;;;;;;;;;7.00;7.00;;;;;;;;3578995;39;113806;-70
2021/06/04 13:02:44;;;;;;;;;7.67;7.00;;;;;;;;3581165;39;113161;-69
2021/06/04 13:05:11;;;;;;;;;7.00;6.00;;;;;;;;3579158;39;113277;-70
2021/06/04 13:07:39;;;;;;;;;7.00;7.00;;;;;;;;3578506;39;113864;-69
2021/06/04 13:10:09;;;;;;;;;8.67;7.33;;;;;;;;3582916;39;111847;-69
2021/06/04 13:12:38;;;;;;;;;5.00;5.00;;;;;;;;3583089;39;113218;-69
2021/06/04 13:15:12;;;;;;;;;7.33;6.67;;;;;;;;3579939;39;111799;-69
2021/06/04 13:17:40;;;;;;;;;7.67;6.00;;;;;;;;3579478;39;113164;-69
2021/06/04 13:20:10;;;;;;;;;6.00;6.00;;;;;;;;3583006;39;113813;-69
2021/06/04 13:22:37;;;;;;;;;6.00;6.00;;;;;;;;3578779;39;112910;-69
2021/06/04 13:25:11;;;;;;;;;7.00;7.00;;;;;;;;3577209;39;112371;-69
2021/06/04 13:27:38;;;;;;;;;5.00;5.00;;;;;;;;3579794;39;113579;-69
2021/06/04 13:30:06;;;;;;;;;7.00;7.00;;;;;;;;3582732;39;111807;-69
2021/06/04 13:32:34;;;;;;;;;4.00;4.00;;;;;;;;3581095;39;113185;-70
2021/06/04 13:36:30;;;;;;;;;8.00;7.00;;;;;;;;3578532;39;220360;-74
2021/06/04 13:38:58;;;;;;;;;5.00;5.00;;;;;;;;3587091;39;113856;-70
2021/06/04 13:41:27;;;;;;;;;6.67;6.33;;;;;;;;3586753;39;111867;-69
2021/06/04 13:43:55;;;;;;;;;6.00;6.00;;;;;;;;3586757;39;113226;-69
2021/06/04 13:46:23;;;;;;;;;6.00;6.00;;;;;;;;3584432;39;114048;-68
2021/06/04 13:49:00;;;;;;;;;7.00;7.00;;;;;;;;3582775;39;112274;-71
2021/06/04 13:51:27;;;;;;;;;7.33;7.00;;;;;;;;3587212;39;113126;-68
2021/06/04 13:53:56;;;;;;;;;7.00;7.00;;;;;;;;3586303;39;113960;-70
2021/06/04 13:56:24;;;;;;;;;7.33;4.33;;;;;;;;3589527;39;112251;-74
2021/06/04 13:59:10;;;;;;;;;7.67;7.67;;;;;;;;3586458;39;113780;-71
2021/06/04 14:01:46;;;;;;;;;7.00;6.33;;;;;;;;3584145;39;111872;-70
2021/06/04 14:04:17;;;;;;;;;6.33;5.00;;;;;;;;3587218;39;113590;-70
2021/06/04 14:06:50;;;;;;;;;11.33;8.00;;;;;;;;3585837;39;113908;-70
2021/06/04 14:09:26;;;;;;;;;5.00;5.00;;;;;;;;3587240;39;111765;-71
2021/06/04 14:11:53;;;;;;;;;5.67;5.00;;;;;;;;3585932;39;113146;-70
2021/06/04 14:14:22;;;;;;;;;6.33;5.67;;;;;;;;3585511;39;113769;-70
2021/06/04 14:24:49;;;;;;;;;6.00;6.00;;;;;;;;3731473;22;113613;-71
2021/06/04 14:27:30;;;;;;;;;6.00;5.00;;;;;;;;3545077;39;113752;-71
2021/06/04 14:29:57;;;;;;;;;8.00;6.67;;;;;;;;3547016;39;112052;-70
2021/06/04 14:32:25;;;;;;;;;6.00;6.00;;;;;;;;3547479;39;113309;-70
2021/06/04 14:35:10;;;;;;;;;6.00;6.00;;;;;;;;3545668;39;113873;-70
2021/06/04 14:37:38;;;;;;;;;6.00;6.00;;;;;;;;3546037;39;112006;-72
2021/06/04 14:40:13;;;;;;;;;7.67;5.00;;;;;;;;3544939;39;113074;-73
2021/06/04 14:42:39;;;;;;;;;6.00;6.00;;;;;;;;3547707;39;113762;-70
2021/06/04 14:45:06;;;;;;;;;4.67;4.67;;;;;;;;3545937;39;112267;-69
2021/06/04 14:47:35;;;;;;;;;5.00;5.00;;;;;;;;3540037;39;114356;-70
2021/06/04 14:50:01;;;;;;;;;5.00;5.00;;;;;;;;3538587;39;112341;-68
2021/06/04 14:52:27;;;;;;;;;6.00;6.00;;;;;;;;3539618;39;113246;-70
2021/06/04 14:54:54;;;;;;;;;4.67;4.67;;;;;;;;3537263;39;112887;-71
2021/06/04 14:57:23;;;;;;;;;7.33;6.00;;;;;;;;3539641;39;111860;-71
2021/06/04 14:59:53;;;;;;;;;5.67;5.67;;;;;;;;3540331;39;113507;-72
2021/06/04 15:02:23;;;;;;;;;6.67;6.67;;;;;;;;3538504;39;114420;-73
2021/06/04 15:04:50;;;;;;;;;7.67;7.67;;;;;;;;3542475;39;112591;-73
2021/06/04 15:07:16;;;;;;;;;8.00;8.00;;;;;;;;3538280;39;114125;-73
2021/06/04 15:09:43;;;;;;;;;8.00;8.00;;;;;;;;3536811;39;112458;-74
2021/06/04 15:12:12;;;;;;;;;6.00;6.00;;;;;;;;3538365;39;113235;-74
2021/06/04 15:14:39;;;;;;;;;8.00;7.00;;;;;;;;3536702;39;114842;-73
2021/06/04 15:17:07;;;;;;;;;6.67;6.00;;;;;;;;3538083;39;111755;-73
2021/06/04 15:19:33;;;;;;;;;9.33;8.00;;;;;;;;3538919;39;113180;-74
2021/06/04 15:21:59;;;;;;;;;6.00;5.00;;;;;;;;3539247;39;113754;-74
2021/06/04 15:24:25;;;;;;;;;7.00;7.00;;;;;;;;3538928;39;112130;-74
2021/06/04 15:26:55;;;;;;;;;7.00;7.00;;;;;;;;3541895;39;113468;-75
2021/06/04 15:29:22;;;;;;;;;10.33;8.00;;;;;;;;3538429;39;112808;-76
2021/06/04 15:31:50;;;;;;;;;7.00;7.00;;;;;;;;3539989;39;113227;-73
2021/06/04 15:34:16;;;;;;;;;8.00;8.00;;;;;;;;3537861;39;114017;-74
2021/06/04 15:36:43;;;;;;;;;7.00;7.00;;;;;;;;3540469;39;112311;-78
2021/06/04 15:44:30;;;;;;;;;6.00;6.00;;;;;;;;3513439;40;113646;-74
2021/06/04 15:46:58;;;;;;;;;8.00;8.00;;;;;;;;3512209;39;113216;-81
2021/06/04 15:49:24;;;;;;;;;10.00;8.00;;;;;;;;3516261;40;113087;-74
2021/06/04 15:51:51;;;;;;;;;7.00;7.00;;;;;;;;3514293;40;113530;-73
2021/06/04 15:54:18;;;;;;;;;5.00;5.00;;;;;;;;3510168;39;114410;-76
2021/06/04 15:56:44;;;;;;;;;8.67;7.67;;;;;;;;3513848;40;112163;-72
2021/06/04 15:59:10;;;;;;;;;8.67;8.00;;;;;;;;3513910;40;113555;-72
2021/06/04 16:01:38;;;;;;;;;7.67;6.67;;;;;;;;3513635;40;113814;-77
2021/06/04 16:04:06;;;;;;;;;7.67;7.00;;;;;;;;3514213;40;112053;-76
2021/06/04 16:06:33;;;;;;;;;7.33;7.33;;;;;;;;3514285;40;113455;-77
2021/06/04 16:08:59;;;;;;;;;8.00;8.00;;;;;;;;3516226;40;114459;-78
2021/06/04 16:11:25;;;;;;;;;7.00;7.00;;;;;;;;3514483;40;113332;-76
2021/06/04 16:13:52;;;;;;;;;8.33;7.00;;;;;;;;3511881;40;113532;-75
2021/06/04 16:16:18;;;;;;;;;5.00;5.00;;;;;;;;3513215;40;111863;-76
2021/06/04 16:18:44;;;;;;;;;8.00;6.00;;;;;;;;3513461;40;113464;-76
2021/06/04 16:21:13;;;;;;;;;7.00;7.00;;;;;;;;3513063;40;113824;-78
2021/06/04 16:23:40;;;;;;;;;7.00;6.00;;;;;;;;3513158;40;112678;-76
2021/06/04 16:26:08;;;;;;;;;7.00;7.00;;;;;;;;3513330;40;113330;-76
2021/06/04 16:28:34;;;;;;;;;7.00;7.00;;;;;;;;3512720;40;114304;-76
2021/06/04 16:31:03;;;;;;;;;6.00;5.00;;;;;;;;3515838;40;112180;-76
2021/06/04 16:33:30;;;;;;;;;8.00;6.00;;;;;;;;3515307;39;113975;-75
2021/06/04 16:35:56;;;;;;;;;9.00;8.67;;;;;;;;3513821;39;112266;-76
2021/06/04 16:38:24;;;;;;;;;6.00;6.00;;;;;;;;3513884;39;113281;-78
2021/06/04 16:40:50;;;;;;;;;7.00;7.00;;;;;;;;3514084;39;114565;-76
2021/06/04 16:43:17;;;;;;;;;8.00;7.00;;;;;;;;3512434;39;112550;-76
2021/06/04 16:45:44;;;;;;;;;6.33;6.00;;;;;;;;3514546;39;114106;-75
2021/06/04 16:48:11;;;;;;;;;8.00;8.00;;;;;;;;3514922;39;114311;-77
2021/06/04 16:50:37;;;;;;;;;8.67;7.00;;;;;;;;3514096;39;112685;-77
2021/06/04 16:53:03;;;;;;;;;9.00;8.00;;;;;;;;3517537;39;113136;-77
2021/06/04 16:55:32;;;;;;;;;7.00;7.00;;;;;;;;3515013;39;112400;-77
2021/06/04 16:57:58;;;;;;;;;8.00;7.00;;;;;;;;3515887;39;113232;-78
2021/06/04 17:00:26;;;;;;;;;8.33;8.00;;;;;;;;3517182;39;113547;-79
2021/06/04 17:02:53;;;;;;;;;7.33;7.33;;;;;;;;3510357;39;112271;-77
2021/06/04 17:05:19;;;;;;;;;6.00;6.00;;;;;;;;3515955;39;113469;-75
2021/06/04 17:07:46;;;;;;;;;7.00;7.00;;;;;;;;3514776;39;113973;-82
2021/06/04 17:10:12;;;;;;;;;8.00;7.33;;;;;;;;3518345;39;112208;-82
2021/06/04 17:12:40;;;;;;;;;8.00;7.00;;;;;;;;3515264;39;113780;-81
2021/06/04 17:15:07;;;;;;;;;8.00;8.00;;;;;;;;3519939;39;113910;-76
2021/06/04 17:17:34;;;;;;;;;6.33;6.00;;;;;;;;3517818;39;114127;-74
2021/06/04 17:20:00;;;;;;;;;6.00;6.00;;;;;;;;3517273;39;113978;-79
2021/06/04 17:22:26;;;;;;;;;8.00;8.00;;;;;;;;3516727;39;112629;-77
2021/06/04 17:24:53;;;;;;;;;8.00;8.00;;;;;;;;3513731;40;113301;-74
2021/06/04 17:27:19;;;;;;;;;7.00;7.00;;;;;;;;3511497;40;113914;-77
2021/06/04 17:29:47;;;;;;;;;8.00;8.00;;;;;;;;3513614;40;111999;-77
2021/06/04 17:32:13;;;;;;;;;6.33;6.33;;;;;;;;3513365;40;113421;-77
2021/06/04 17:34:40;;;;;;;;;8.00;8.00;;;;;;;;3512267;40;114125;-77
2021/06/04 17:37:07;;;;;;;;;7.00;7.00;;;;;;;;3518286;39;112258;-75
2021/06/04 17:39:33;;;;;;;;;7.00;7.00;;;;;;;;3518144;39;114127;-74
2021/06/04 17:41:59;;;;;;;;;9.00;8.67;;;;;;;;3518856;39;112193;-74
2021/06/04 17:44:25;;;;;;;;;8.67;6.33;;;;;;;;3518961;39;113460;-75
2021/06/04 17:46:52;;;;;;;;;6.00;6.00;;;;;;;;3518490;39;114115;-76
2021/06/04 17:49:19;;;;;;;;;8.33;6.33;;;;;;;;3519614;39;112013;-75
2021/06/04 17:51:45;;;;;;;;;6.67;6.00;;;;;;;;3515274;39;112785;-75
2021/06/04 17:54:11;;;;;;;;;9.00;8.00;;;;;;;;3518966;39;113802;-76
2021/06/04 17:56:37;;;;;;;;;8.00;8.00;;;;;;;;3521076;39;112242;-76
2021/06/04 17:59:03;;;;;;;;;7.00;7.00;;;;;;;;3519105;39;113901;-75